ADDS METAR Data INFO
IDs: Format: Raw Decoded Include TAF

Data at: 1736 UTC 15 Dec 2017

KJBR 151653Z AUTO 22007KT 10SM CLR 06/M02 A3022 RMK AO2 SLP233 T00611022
KJBR 151553Z AUTO 25005KT 10SM CLR 03/M02 A3024 RMK AO2 SLP240 T00331022
KJBR 151453Z AUTO 24004KT 10SM CLR 01/M03 A3023 RMK AO2 SLP237 T00111028 51016
KJBR 151353Z AUTO 00000KT 10SM BKN047 M01/M03 A3021 RMK AO2 SLP232 T10111033
KJBR 151253Z AUTO 29005KT 10SM CLR M01/M03 A3021 RMK AO2 SLP232 T10111033
KJBR 151153Z AUTO 29005KT 10SM OVC049 M01/M03 A3018 RMK AO2 SLP221 T10111033 10000 21028 53009
KJBR 151053Z AUTO 29006KT 10SM OVC048 M01/M03 A3017 RMK AO2 SLP218 T10111033
KJBR 150953Z AUTO 00000KT 10SM OVC048 M02/M03 A3015 RMK AO2 SLP211 T10221033
KJBR 150853Z AUTO 00000KT 10SM BKN049 M02/M04 A3016 RMK AO2 SLP212 T10221044 53000
KJBR 150753Z AUTO 00000KT 10SM CLR M01/M04 A3015 RMK AO2 SLP210 T10111039
KJBR 150653Z AUTO 00000KT 10SM OVC048 M01/M03 A3015 RMK AO2 SLP210 T10061033
KJBR 150553Z AUTO 00000KT 10SM OVC048 M01/M03 A3015 RMK AO2 SLP212 T10111028 10028 21011 400781011 50002
KJBR 150453Z AUTO 01005KT 10SM BKN050 M01/M03 A3017 RMK AO2 SLP217 T10061033
KJBR 150353Z AUTO 01004KT 10SM CLR 01/M03 A3016 RMK AO2 SLP213 T00061033
KJBR 150253Z AUTO 04003KT 10SM CLR 01/M03 A3015 RMK AO2 SLP209 T00061028 51019
KJBR 150153Z AUTO 03006KT 10SM CLR 01/M03 A3013 RMK AO2 SLP203 T00111028
KJBR 150053Z AUTO 05006KT 10SM CLR 01/M02 A3011 RMK AO2 SLP197 T00111022
KJBR 142353Z AUTO 00000KT 10SM CLR 02/M03 A3009 RMK AO2 SLP190 T00221028 10078 20017 53010
KJBR 142253Z AUTO 00000KT 10SM CLR 05/M02 A3006 RMK AO2 SLP180 T00501022
KJBR 142153Z AUTO 04003KT 10SM CLR 07/M02 A3005 RMK AO2 SLP177 T00721022
KJBR 142053Z AUTO 27003KT 10SM FEW048 07/M02 A3006 RMK AO2 SLP179 T00671022 55002
KJBR 141953Z AUTO 00000KT 10SM OVC038 06/M02 A3005 RMK AO2 SLP177 T00611022
KJBR 141853Z AUTO VRB03KT 10SM BKN037 OVC045 07/M01 A3005 RMK AO2 SLP174 T00671011
KJBR 141753Z AUTO 07007KT 10SM OVC035 06/M01 A3007 RMK AO2 SLP181 T00561011 10061 21006 50006
KJBR 141653Z AUTO 07006KT 10SM OVC034 06/M01 A3009 RMK AO2 SLP188 T00561011
KJBR 141553Z AUTO 06005KT 10SM OVC040 05/M01 A3009 RMK AO2 SLP188 T00501011
KJBR 141453Z AUTO 05006KT 10SM BKN041 05/M01 A3005 RMK AO2 SLP175 T00501011 53031
KJBR 141353Z AUTO 00000KT 10SM CLR 02/M01 A3001 RMK AO2 SLP163 T00221011
KJBR 141253Z AUTO 00000KT 10SM CLR 01/M02 A2998 RMK AO2 SLP152 T00061022
KJBR 141153Z AUTO 00000KT 10SM CLR 03/M02 A2995 RMK AO2 SLP143 T00281017 10078 20028 53017
KJBR 141053Z AUTO 01006KT 10SM CLR 05/M01 A2993 RMK AO2 SLP133 T00501011
KJBR 140953Z AUTO 34005KT 10SM CLR 06/M02 A2991 RMK AO2 SLP129 T00561017
KJBR 140853Z AUTO 30004KT 10SM CLR 04/M02 A2990 RMK AO2 SLP126 T00391022 53015
KJBR 140753Z AUTO 30004KT 10SM CLR 04/M02 A2989 RMK AO2 SLP121 T00441022
KJBR 140653Z AUTO 30006KT 10SM CLR 07/M02 A2987 RMK AO2 SLP115 T00721017
KJBR 140553Z AUTO 29006KT 10SM CLR 08/M02 A2986 RMK AO2 SLP111 T00781017 10111 20072 401441033 51017